sensor_id;sensor_type;location;lat;lon;timestamp;temperature;humidity
14154;DHT22;7157;53.144;7.570;2023-11-19T00:03:35;9.99;114.57
14154;DHT22;7157;53.144;7.570;2023-11-19T00:13:38;10.12;114.61
14154;DHT22;7157;53.144;7.570;2023-11-19T00:23:42;10.24;115.25
14154;DHT22;7157;53.144;7.570;2023-11-19T00:33:45;10.39;115.04
14154;DHT22;7157;53.144;7.570;2023-11-19T00:43:52;10.57;115.25
14154;DHT22;7157;53.144;7.570;2023-11-19T00:53:54;10.72;115.37
14154;DHT22;7157;53.144;7.570;2023-11-19T01:03:58;10.96;115.25
14154;DHT22;7157;53.144;7.570;2023-11-19T01:14:01;11.09;115.61
14154;DHT22;7157;53.144;7.570;2023-11-19T01:24:06;11.26;115.48
14154;DHT22;7157;53.144;7.570;2023-11-19T01:34:10;11.48;115.89
14154;DHT22;7157;53.144;7.570;2023-11-19T01:44:15;11.82;116.14
14154;DHT22;7157;53.144;7.570;2023-11-19T01:54:18;11.98;116.38
14154;DHT22;7157;53.144;7.570;2023-11-19T02:04:22;12.16;116.61
14154;DHT22;7157;53.144;7.570;2023-11-19T02:14:25;12.36;116.38
14154;DHT22;7157;53.144;7.570;2023-11-19T02:24:31;12.50;116.38
14154;DHT22;7157;53.144;7.570;2023-11-19T02:34:37;12.53;116.20
14154;DHT22;7157;53.144;7.570;2023-11-19T02:44:43;12.53;116.06
14154;DHT22;7157;53.144;7.570;2023-11-19T02:54:47;12.55;116.12
14154;DHT22;7157;53.144;7.570;2023-11-19T03:04:50;12.69;115.87
14154;DHT22;7157;53.144;7.570;2023-11-19T03:14:55;12.86;115.44
14154;DHT22;7157;53.144;7.570;2023-11-19T03:24:58;12.81;115.49
14154;DHT22;7157;53.144;7.570;2023-11-19T03:35:03;12.93;114.01
14154;DHT22;7157;53.144;7.570;2023-11-19T03:45:08;13.01;113.91
14154;DHT22;7157;53.144;7.570;2023-11-19T03:55:12;13.17;112.42
14154;DHT22;7157;53.144;7.570;2023-11-19T04:05:15;13.01;112.67
14154;DHT22;7157;53.144;7.570;2023-11-19T04:15:21;13.05;111.66
14154;DHT22;7157;53.144;7.570;2023-11-19T04:25:25;13.06;110.19
14154;DHT22;7157;53.144;7.570;2023-11-19T04:35:30;13.07;109.48
14154;DHT22;7157;53.144;7.570;2023-11-19T04:45:32;13.12;108.65
14154;DHT22;7157;53.144;7.570;2023-11-19T04:55:37;13.19;108.10
14154;DHT22;7157;53.144;7.570;2023-11-19T05:05:39;13.17;106.27
14154;DHT22;7157;53.144;7.570;2023-11-19T05:15:45;13.16;106.33
14154;DHT22;7157;53.144;7.570;2023-11-19T05:25:48;13.17;105.57
14154;DHT22;7157;53.144;7.570;2023-11-19T05:35:52;13.15;104.99
14154;DHT22;7157;53.144;7.570;2023-11-19T05:45:55;13.06;105.01
14154;DHT22;7157;53.144;7.570;2023-11-19T05:55:59;13.09;104.66
14154;DHT22;7157;53.144;7.570;2023-11-19T06:06:06;13.02;104.05
14154;DHT22;7157;53.144;7.570;2023-11-19T06:16:10;12.41;108.63
14154;DHT22;7157;53.144;7.570;2023-11-19T06:26:13;12.10;111.14
14154;DHT22;7157;53.144;7.570;2023-11-19T06:36:17;12.00;111.63
14154;DHT22;7157;53.144;7.570;2023-11-19T06:46:20;12.03;110.90
14154;DHT22;7157;53.144;7.570;2023-11-19T06:56:24;12.23;108.75
14154;DHT22;7157;53.144;7.570;2023-11-19T07:06:27;12.16;107.69
14154;DHT22;7157;53.144;7.570;2023-11-19T07:16:35;12.26;106.87
14154;DHT22;7157;53.144;7.570;2023-11-19T07:26:42;12.19;107.04
14154;DHT22;7157;53.144;7.570;2023-11-19T07:36:47;12.16;105.96
14154;DHT22;7157;53.144;7.570;2023-11-19T07:46:49;12.29;104.55
14154;DHT22;7157;53.144;7.570;2023-11-19T07:56:54;12.44;104.37
14154;DHT22;7157;53.144;7.570;2023-11-19T08:06:56;12.05;106.66
14154;DHT22;7157;53.144;7.570;2023-11-19T08:17:00;11.89;107.37
14154;DHT22;7157;53.144;7.570;2023-11-19T08:27:03;11.84;108.35
14154;DHT22;7157;53.144;7.570;2023-11-19T08:37:08;11.74;110.18
14154;DHT22;7157;53.144;7.570;2023-11-19T08:47:11;12.11;109.84
14154;DHT22;7157;53.144;7.570;2023-11-19T08:57:16;12.08;108.68
14154;DHT22;7157;53.144;7.570;2023-11-19T09:07:18;11.92;110.42
14154;DHT22;7157;53.144;7.570;2023-11-19T09:17:24;11.83;112.14
14154;DHT22;7157;53.144;7.570;2023-11-19T09:27:26;11.76;112.81
14154;DHT22;7157;53.144;7.570;2023-11-19T09:37:30;11.82;112.69
14154;DHT22;7157;53.144;7.570;2023-11-19T09:47:33;11.70;112.64
14154;DHT22;7157;53.144;7.570;2023-11-19T09:57:38;11.76;112.69
14154;DHT22;7157;53.144;7.570;2023-11-19T10:07:41;12.03;111.14
14154;DHT22;7157;53.144;7.570;2023-11-19T10:17:45;12.30;110.99
14154;DHT22;7157;53.144;7.570;2023-11-19T10:27:48;12.46;109.65
14154;DHT22;7157;53.144;7.570;2023-11-19T10:37:52;12.62;108.95
14154;DHT22;7157;53.144;7.570;2023-11-19T10:47:55;12.66;106.94
14154;DHT22;7157;53.144;7.570;2023-11-19T10:58:02;13.00;107.59
14154;DHT22;7157;53.144;7.570;2023-11-19T11:08:06;13.07;106.37
14154;DHT22;7157;53.144;7.570;2023-11-19T11:18:10;12.53;108.06
14154;DHT22;7157;53.144;7.570;2023-11-19T11:28:19;12.21;111.32
14154;DHT22;7157;53.144;7.570;2023-11-19T11:38:26;12.01;112.35
14154;DHT22;7157;53.144;7.570;2023-11-19T11:48:30;12.04;112.68
14154;DHT22;7157;53.144;7.570;2023-11-19T11:58:35;11.78;112.06
14154;DHT22;7157;53.144;7.570;2023-11-19T12:08:41;11.84;112.45
14154;DHT22;7157;53.144;7.570;2023-11-19T12:18:48;15.07;100.49
14154;DHT22;7157;53.144;7.570;2023-11-19T12:28:57;18.32;83.65
14154;DHT22;7157;53.144;7.570;2023-11-19T12:39:02;13.43;103.34
14154;DHT22;7157;53.144;7.570;2023-11-19T12:49:06;12.51;107.06
14154;DHT22;7157;53.144;7.570;2023-11-19T12:59:13;12.08;109.60
14154;DHT22;7157;53.144;7.570;2023-11-19T13:09:22;13.48;105.82
14154;DHT22;7157;53.144;7.570;2023-11-19T13:19:27;12.58;108.13
14154;DHT22;7157;53.144;7.570;2023-11-19T13:29:30;13.12;107.07
14154;DHT22;7157;53.144;7.570;2023-11-19T13:39:41;12.60;108.51
14154;DHT22;7157;53.144;7.570;2023-11-19T13:49:44;12.50;109.91
14154;DHT22;7157;53.144;7.570;2023-11-19T13:59:49;12.45;110.23
14154;DHT22;7157;53.144;7.570;2023-11-19T14:09:51;12.47;109.96
14154;DHT22;7157;53.144;7.570;2023-11-19T14:19:56;12.27;109.63
14154;DHT22;7157;53.144;7.570;2023-11-19T14:29:58;12.38;109.50
14154;DHT22;7157;53.144;7.570;2023-11-19T14:40:03;12.42;108.56
14154;DHT22;7157;53.144;7.570;2023-11-19T14:50:07;12.32;108.70
14154;DHT22;7157;53.144;7.570;2023-11-19T15:00:13;12.21;108.00
14154;DHT22;7157;53.144;7.570;2023-11-19T15:10:16;12.15;108.71
14154;DHT22;7157;53.144;7.570;2023-11-19T15:20:21;11.98;109.97
14154;DHT22;7157;53.144;7.570;2023-11-19T15:30:24;12.05;109.94
14154;DHT22;7157;53.144;7.570;2023-11-19T15:40:29;12.00;109.74
14154;DHT22;7157;53.144;7.570;2023-11-19T15:50:32;11.90;109.10
14154;DHT22;7157;53.144;7.570;2023-11-19T16:00:36;11.93;108.46
14154;DHT22;7157;53.144;7.570;2023-11-19T16:10:39;12.06;108.17
14154;DHT22;7157;53.144;7.570;2023-11-19T16:20:45;12.11;108.64
14154;DHT22;7157;53.144;7.570;2023-11-19T16:30:48;12.10;109.29
14154;DHT22;7157;53.144;7.570;2023-11-19T16:40:53;11.93;109.16
14154;DHT22;7157;53.144;7.570;2023-11-19T16:50:57;11.99;109.36
14154;DHT22;7157;53.144;7.570;2023-11-19T17:01:05;11.90;109.81
14154;DHT22;7157;53.144;7.570;2023-11-19T17:11:08;11.73;111.40
14154;DHT22;7157;53.144;7.570;2023-11-19T17:21:13;11.71;111.92
14154;DHT22;7157;53.144;7.570;2023-11-19T17:31:16;11.71;112.12
14154;DHT22;7157;53.144;7.570;2023-11-19T17:41:20;11.55;112.71
14154;DHT22;7157;53.144;7.570;2023-11-19T17:51:23;11.52;113.90
14154;DHT22;7157;53.144;7.570;2023-11-19T18:01:28;11.48;114.51
14154;DHT22;7157;53.144;7.570;2023-11-19T18:11:36;11.45;115.04
14154;DHT22;7157;53.144;7.570;2023-11-19T18:21:41;11.42;115.39
14154;DHT22;7157;53.144;7.570;2023-11-19T18:31:45;11.47;115.48
14154;DHT22;7157;53.144;7.570;2023-11-19T18:41:50;11.45;115.74
14154;DHT22;7157;53.144;7.570;2023-11-19T18:51:53;11.41;115.85
14154;DHT22;7157;53.144;7.570;2023-11-19T19:01:57;11.46;115.97
14154;DHT22;7157;53.144;7.570;2023-11-19T19:12:00;11.40;115.98
14154;DHT22;7157;53.144;7.570;2023-11-19T19:22:04;11.51;115.86
14154;DHT22;7157;53.144;7.570;2023-11-19T19:32:07;11.55;115.98
14154;DHT22;7157;53.144;7.570;2023-11-19T19:42:11;11.58;116.08
14154;DHT22;7157;53.144;7.570;2023-11-19T19:52:16;11.59;116.02
14154;DHT22;7157;53.144;7.570;2023-11-19T20:02:20;11.59;115.98
14154;DHT22;7157;53.144;7.570;2023-11-19T20:12:23;11.57;116.29
14154;DHT22;7157;53.144;7.570;2023-11-19T20:22:33;11.59;116.04
14154;DHT22;7157;53.144;7.570;2023-11-19T20:32:36;11.57;116.38
14154;DHT22;7157;53.144;7.570;2023-11-19T20:42:40;11.62;116.51
14154;DHT22;7157;53.144;7.570;2023-11-19T20:52:43;11.69;116.47
14154;DHT22;7157;53.144;7.570;2023-11-19T21:02:47;11.72;116.46
14154;DHT22;7157;53.144;7.570;2023-11-19T21:12:50;11.73;116.55
14154;DHT22;7157;53.144;7.570;2023-11-19T21:22:55;11.75;116.41
14154;DHT22;7157;53.144;7.570;2023-11-19T21:32:57;11.71;116.44
14154;DHT22;7157;53.144;7.570;2023-11-19T21:43:01;11.74;116.64
14154;DHT22;7157;53.144;7.570;2023-11-19T21:53:04;11.71;116.58
14154;DHT22;7157;53.144;7.570;2023-11-19T22:03:09;11.63;116.51
14154;DHT22;7157;53.144;7.570;2023-11-19T22:13:12;11.49;117.02
14154;DHT22;7157;53.144;7.570;2023-11-19T22:23:16;11.59;117.02
14154;DHT22;7157;53.144;7.570;2023-11-19T22:33:19;11.72;117.15
14154;DHT22;7157;53.144;7.570;2023-11-19T22:43:24;11.66;117.10
14154;DHT22;7157;53.144;7.570;2023-11-19T22:53:26;11.64;117.28
14154;DHT22;7157;53.144;7.570;2023-11-19T23:03:30;11.70;117.31
14154;DHT22;7157;53.144;7.570;2023-11-19T23:13:34;11.64;117.33
14154;DHT22;7157;53.144;7.570;2023-11-19T23:23:38;11.79;117.40
14154;DHT22;7157;53.144;7.570;2023-11-19T23:33:41;11.79;117.66
14154;DHT22;7157;53.144;7.570;2023-11-19T23:43:45;11.82;118.18
14154;DHT22;7157;53.144;7.570;2023-11-19T23:53:49;11.58;118.11
